createdAt,value
2018-04-07T00:00:29.270Z,101228.92
2018-04-07T00:02:55.061Z,101236.81
2018-04-07T00:05:20.850Z,101231.95
2018-04-07T00:07:46.653Z,101231.03
2018-04-07T00:10:12.435Z,101225.45
2018-04-07T00:12:38.215Z,101237.14
2018-04-07T00:15:04.012Z,101225.94
2018-04-07T00:17:29.820Z,101222.03
2018-04-07T00:19:55.627Z,101220.39
2018-04-07T00:22:21.452Z,101223.03
2018-04-07T00:24:47.275Z,101219.61
2018-04-07T00:27:13.083Z,101216.28
2018-04-07T00:29:38.879Z,101217.77
2018-04-07T00:32:04.698Z,101206.42
2018-04-07T00:34:30.510Z,101211.96
2018-04-07T00:36:56.327Z,101212.89
2018-04-07T00:39:22.144Z,101206.52
2018-04-07T00:41:47.940Z,101200.66
2018-04-07T00:44:13.730Z,101200.34
2018-04-07T00:46:39.533Z,101197.56
2018-04-07T00:49:05.332Z,101195.66
2018-04-07T00:51:31.123Z,101195.16
2018-04-07T00:53:57.053Z,101195.69
2018-04-07T00:56:22.840Z,101187.75
2018-04-07T00:58:48.632Z,101188.19
2018-04-07T01:01:14.466Z,101185.77
2018-04-07T01:03:40.247Z,101187.98
2018-04-07T01:06:06.054Z,101180.31
2018-04-07T01:08:31.864Z,101180.05
2018-04-07T01:10:57.667Z,101170.42
2018-04-07T01:13:23.475Z,101166.53
2018-04-07T01:15:49.300Z,101177.25
2018-04-07T01:18:15.099Z,101163.56
2018-04-07T01:20:40.896Z,101161.71
2018-04-07T01:23:06.698Z,101160.45
2018-04-07T01:25:32.487Z,101156.12
2018-04-07T01:27:58.300Z,101153.19
2018-04-07T01:30:24.087Z,101152.56
2018-04-07T01:32:49.885Z,101157.43
2018-04-07T01:35:15.695Z,101158.99
2018-04-07T01:37:41.515Z,101150.78
2018-04-07T01:40:07.318Z,101150.72
2018-04-07T01:42:33.171Z,101145.95
2018-04-07T01:44:58.951Z,101138.19
2018-04-07T01:47:24.755Z,101136.97
2018-04-07T01:49:50.559Z,101134.39
2018-04-07T01:52:16.354Z,101135.27
2018-04-07T01:54:42.173Z,101131.77
2018-04-07T01:57:07.970Z,101131.09
2018-04-07T01:59:33.755Z,101131.98
2018-04-07T02:01:59.556Z,101132.61
2018-04-07T02:04:25.375Z,101122.38
2018-04-07T02:06:51.194Z,101124.05
2018-04-07T02:09:16.983Z,101123.04
2018-04-07T02:11:42.766Z,101115.07
2018-04-07T02:14:08.575Z,101116.50
2018-04-07T02:16:34.396Z,101115.49
2018-04-07T02:19:00.207Z,101116.63
2018-04-07T02:21:26.008Z,101110.75
2018-04-07T02:23:51.786Z,101092.04
2018-04-07T02:26:17.597Z,101109.43
2018-04-07T02:28:43.394Z,101107.45
2018-04-07T02:31:09.179Z,101104.00
2018-04-07T02:33:35.018Z,101111.15
2018-04-07T02:36:00.815Z,101111.00
2018-04-07T02:38:26.587Z,101108.13
2018-04-07T02:40:52.392Z,101117.86
2018-04-07T02:43:18.222Z,101120.82
2018-04-07T02:45:44.015Z,101113.06
2018-04-07T02:48:10.208Z,101116.43
2018-04-07T02:50:36.025Z,101115.61
2018-04-07T02:53:01.851Z,101122.16
2018-04-07T02:55:27.647Z,101119.69
2018-04-07T02:57:53.443Z,101114.92
2018-04-07T03:00:19.228Z,101128.71
2018-04-07T03:02:45.043Z,101120.42
2018-04-07T03:05:10.821Z,101127.16
2018-04-07T03:07:36.607Z,101126.05
2018-04-07T03:10:02.470Z,101123.88
2018-04-07T03:12:28.245Z,101121.91
2018-04-07T03:14:54.030Z,101119.77
2018-04-07T03:17:19.839Z,101119.24
2018-04-07T03:19:45.618Z,101132.91
2018-04-07T03:22:11.460Z,101127.05
2018-04-07T03:24:37.258Z,101126.00
2018-04-07T03:27:03.055Z,101122.32
2018-04-07T03:29:28.839Z,101123.52
2018-04-07T03:31:54.718Z,101124.84
2018-04-07T03:34:20.526Z,101124.27
2018-04-07T03:36:46.322Z,101117.51
2018-04-07T03:39:12.143Z,101116.75
2018-04-07T03:41:37.924Z,101110.46
2018-04-07T03:44:03.721Z,101109.44
2018-04-07T03:46:29.567Z,101112.05
2018-04-07T03:48:55.381Z,101108.52
2018-04-07T03:51:21.194Z,101110.52
2018-04-07T03:53:47.296Z,101113.41
2018-04-07T03:56:13.099Z,101112.84
2018-04-07T03:58:38.891Z,101110.69
2018-04-07T04:01:04.747Z,101103.84
2018-04-07T04:03:30.585Z,101098.88
2018-04-07T04:05:56.603Z,101095.27
2018-04-07T04:08:22.414Z,101100.33
2018-04-07T04:10:48.217Z,101099.70
2018-04-07T04:13:14.011Z,101097.69
2018-04-07T04:15:39.803Z,101101.00
2018-04-07T04:18:05.879Z,101092.50
2018-04-07T04:20:31.679Z,101091.40
2018-04-07T04:22:57.467Z,101086.53
2018-04-07T04:25:23.262Z,101081.22
2018-04-07T04:27:49.069Z,101083.16
2018-04-07T04:30:14.855Z,101071.59
2018-04-07T04:32:40.647Z,101075.70
2018-04-07T04:35:06.430Z,101072.78
2018-04-07T04:37:32.236Z,101071.94
2018-04-07T04:39:58.257Z,101063.67
2018-04-07T04:42:24.074Z,101063.13
2018-04-07T04:44:49.856Z,101058.41
2018-04-07T04:47:15.659Z,101058.66
2018-04-07T04:49:41.450Z,101054.28
2018-04-07T04:52:07.255Z,101050.28
2018-04-07T04:54:33.062Z,101047.94
2018-04-07T04:56:58.843Z,101047.38
2018-04-07T04:59:25.008Z,101048.13
2018-04-07T05:01:50.820Z,101043.91
2018-04-07T05:04:16.606Z,101045.96
2018-04-07T05:06:42.402Z,101040.11
2018-04-07T05:09:08.186Z,101042.45
2018-04-07T05:11:33.966Z,101043.16
2018-04-07T05:13:59.767Z,101031.64
2018-04-07T05:16:25.577Z,101036.19
2018-04-07T05:18:51.527Z,101027.47
2018-04-07T05:21:17.683Z,101026.16
2018-04-07T05:23:43.496Z,101018.72
2018-04-07T05:26:09.288Z,101021.17
2018-04-07T05:28:35.100Z,101021.27
2018-04-07T05:31:01.020Z,101014.16
2018-04-07T05:33:26.859Z,101011.52
2018-04-07T05:35:52.654Z,101006.36
2018-04-07T05:38:18.475Z,101003.08
2018-04-07T05:40:44.275Z,100998.78
2018-04-07T05:43:10.068Z,101002.32
2018-04-07T05:45:36.480Z,101003.69
2018-04-07T05:48:09.338Z,100997.34
2018-04-07T05:50:35.311Z,100994.16
2018-04-07T05:53:01.135Z,100991.42
2018-04-07T05:55:26.960Z,100988.69
2018-04-07T05:57:52.769Z,100986.95
2018-04-07T06:00:18.592Z,100987.09
2018-04-07T06:02:45.299Z,100985.14
2018-04-07T06:05:11.173Z,100978.58
2018-04-07T06:07:36.984Z,100971.03
2018-04-07T06:10:02.814Z,100962.99
2018-04-07T06:12:30.447Z,100967.84
2018-04-07T06:14:56.376Z,100970.46
2018-04-07T06:17:22.207Z,100966.66
2018-04-07T06:19:48.035Z,100966.26
2018-04-07T06:22:13.871Z,100964.59
2018-04-07T06:24:40.172Z,100958.34
2018-04-07T06:27:07.991Z,100962.63
2018-04-07T06:29:33.817Z,100950.78
2018-04-07T06:31:59.746Z,100940.05
2018-04-07T06:34:25.572Z,100939.67
2018-04-07T06:36:53.339Z,100938.09
2018-04-07T06:39:20.440Z,100945.50
2018-04-07T06:41:46.890Z,100940.91
2018-04-07T06:44:13.401Z,100937.17
2018-04-07T06:46:39.531Z,100937.65
2018-04-07T06:49:05.700Z,100937.89
2018-04-07T06:51:33.466Z,100937.92
2018-04-07T06:53:59.520Z,100937.48
2018-04-07T06:56:25.600Z,100934.49
2018-04-07T06:58:51.481Z,100936.33
2018-04-07T07:01:17.580Z,100937.14
2018-04-07T07:03:43.689Z,100940.82
2018-04-07T07:06:09.521Z,100944.20
2018-04-07T07:08:35.363Z,100940.23
2018-04-07T07:11:01.191Z,100939.48
2018-04-07T07:13:26.979Z,100939.89
2018-04-07T07:15:52.759Z,100942.46
2018-04-07T07:18:18.602Z,100940.84
2018-04-07T07:20:44.416Z,100933.27
2018-04-07T07:23:10.212Z,100940.67
2018-04-07T07:25:36.045Z,100932.44
2018-04-07T07:28:01.832Z,100941.02
2018-04-07T07:30:27.622Z,100938.44
2018-04-07T07:32:53.614Z,100937.37
2018-04-07T07:35:19.411Z,100932.78
2018-04-07T07:37:45.211Z,100927.59
2018-04-07T07:40:11.008Z,100925.78
2018-04-07T07:42:36.823Z,100916.61
2018-04-07T07:45:02.648Z,100914.38
2018-04-07T07:47:28.454Z,100906.78
2018-04-07T07:49:54.258Z,100903.27
2018-04-07T07:52:20.051Z,100887.00
2018-04-07T07:54:45.869Z,100898.70
2018-04-07T07:57:11.674Z,100886.97
2018-04-07T07:59:37.464Z,100889.86
2018-04-07T08:02:03.296Z,100898.72
2018-04-07T08:04:29.120Z,100899.38
2018-04-07T08:06:54.920Z,100897.02
2018-04-07T08:09:21.055Z,100897.44
2018-04-07T08:11:46.842Z,100897.17
2018-04-07T08:14:12.641Z,100903.52
2018-04-07T08:16:38.437Z,100904.30
2018-04-07T08:19:04.233Z,100896.30
2018-04-07T08:21:30.051Z,100898.78
2018-04-07T08:23:55.827Z,100898.70
2018-04-07T08:26:21.616Z,100894.27
2018-04-07T08:28:47.425Z,100900.78
2018-04-07T08:31:13.232Z,100897.80
2018-04-07T08:33:39.032Z,100890.64
2018-04-07T08:36:04.814Z,100878.84
2018-04-07T08:38:30.652Z,100879.92
2018-04-07T08:40:56.471Z,100870.52
2018-04-07T08:43:22.256Z,100874.69
2018-04-07T08:45:48.060Z,100867.96
2018-04-07T08:48:13.841Z,100866.03
2018-04-07T08:50:39.655Z,100867.77
2018-04-07T08:53:05.442Z,100861.77
2018-04-07T08:55:31.374Z,100861.91
2018-04-07T08:57:57.186Z,100850.73
2018-04-07T09:00:22.994Z,100845.66
2018-04-07T09:02:48.791Z,100841.92
2018-04-07T09:05:14.607Z,100835.62
2018-04-07T09:07:40.402Z,100829.42
2018-04-07T09:10:06.193Z,100821.20
2018-04-07T09:12:32.022Z,100824.19
2018-04-07T09:14:57.803Z,100819.98
2018-04-07T09:17:23.591Z,100821.56
2018-04-07T09:19:49.425Z,100819.83
2018-04-07T09:22:15.214Z,100808.28
2018-04-07T09:24:41.001Z,100808.44
2018-04-07T09:27:06.820Z,100805.95
2018-04-07T09:29:32.606Z,100804.30
2018-04-07T09:31:58.396Z,100798.77
2018-04-07T09:34:24.228Z,100791.17
2018-04-07T09:36:50.019Z,100789.49
2018-04-07T09:39:15.829Z,100793.78
2018-04-07T09:41:41.649Z,100786.66
2018-04-07T09:44:07.456Z,100787.91
2018-04-07T09:46:33.264Z,100790.50
2018-04-07T09:48:59.077Z,100792.84
2018-04-07T09:51:24.863Z,100777.73
2018-04-07T09:53:50.923Z,100787.57
2018-04-07T09:56:16.714Z,100783.27
2018-04-07T09:58:42.518Z,100790.09
2018-04-07T10:01:08.355Z,100779.91
2018-04-07T10:03:34.155Z,100770.03
2018-04-07T10:05:59.940Z,100778.12
2018-04-07T10:08:25.760Z,100775.75
2018-04-07T10:10:51.557Z,100781.16
2018-04-07T10:13:17.343Z,100783.66
2018-04-07T10:15:43.154Z,100783.80
2018-04-07T10:18:08.937Z,100780.87
2018-04-07T10:20:34.732Z,100775.42
2018-04-07T10:23:00.536Z,100780.73
2018-04-07T10:25:26.358Z,100778.88
2018-04-07T10:27:52.148Z,100785.63
2018-04-07T10:30:17.971Z,100770.92
2018-04-07T10:32:43.783Z,100772.15
2018-04-07T10:35:09.570Z,100781.59
2018-04-07T10:37:35.363Z,100778.58
2018-04-07T10:40:01.137Z,100778.17
2018-04-07T10:42:26.950Z,100787.28
2018-04-07T10:44:52.741Z,100770.11
2018-04-07T10:47:18.567Z,100775.43
2018-04-07T10:49:44.354Z,100775.32
2018-04-07T10:52:10.151Z,100774.62
2018-04-07T10:54:36.193Z,100776.50
2018-04-07T10:57:02.002Z,100775.89
2018-04-07T10:59:27.782Z,100777.23
2018-04-07T11:01:53.595Z,100775.94
2018-04-07T11:04:19.376Z,100777.89
2018-04-07T11:06:45.173Z,100779.05
2018-04-07T11:09:10.985Z,100767.62
2018-04-07T11:11:36.778Z,100765.56
2018-04-07T11:14:02.588Z,100765.50
2018-04-07T11:16:28.386Z,100757.19
2018-04-07T11:21:26.827Z,100749.72
2018-04-07T11:23:52.627Z,100754.27
2018-04-07T11:26:18.447Z,100754.48
2018-04-07T11:28:44.259Z,100742.81
2018-04-07T11:31:10.046Z,100739.64
2018-04-07T11:33:35.858Z,100733.38
2018-04-07T11:36:01.652Z,100731.17
2018-04-07T11:38:27.455Z,100729.29
2018-04-07T11:40:53.247Z,100732.98
2018-04-07T11:43:19.276Z,100727.63
2018-04-07T11:45:45.058Z,100726.89
2018-04-07T11:48:10.875Z,100726.52
2018-04-07T11:50:36.716Z,100718.75
2018-04-07T11:53:02.522Z,100711.58
2018-04-07T11:55:28.308Z,100707.75
2018-04-07T11:57:54.122Z,100706.06
2018-04-07T12:00:19.923Z,100701.69
2018-04-07T12:02:45.726Z,100699.42
2018-04-07T12:05:11.521Z,100699.87
2018-04-07T12:07:37.319Z,100695.95
2018-04-07T12:10:03.259Z,100693.72
2018-04-07T12:12:29.053Z,100699.72
2018-04-07T12:14:54.873Z,100698.59
2018-04-07T12:17:20.695Z,100703.12
2018-04-07T12:19:46.499Z,100694.44
2018-04-07T12:22:12.306Z,100689.95
2018-04-07T12:24:38.337Z,100693.04
2018-04-07T12:27:04.142Z,100688.00
2018-04-07T12:29:29.926Z,100685.64
2018-04-07T12:31:55.746Z,100688.83
2018-04-07T12:34:21.539Z,100689.09
2018-04-07T12:36:47.326Z,100694.95
2018-04-07T12:39:13.157Z,100690.53
2018-04-07T12:41:38.950Z,100683.50
2018-04-07T12:44:04.767Z,100684.80
2018-04-07T12:46:30.592Z,100679.38
2018-04-07T12:48:56.373Z,100675.49
2018-04-07T12:51:22.163Z,100680.94
2018-04-07T12:53:48.070Z,100667.41
2018-04-07T12:56:13.871Z,100670.46
2018-04-07T12:58:39.677Z,100660.14
2018-04-07T13:01:05.488Z,100657.47
2018-04-07T13:03:31.304Z,100654.70
2018-04-07T13:05:57.095Z,100655.22
2018-04-07T13:08:22.893Z,100643.59
2018-04-07T13:10:48.679Z,100644.48
2018-04-07T13:13:14.557Z,100638.97
2018-04-07T13:15:40.349Z,100643.13
2018-04-07T13:18:06.135Z,100643.05
2018-04-07T13:20:31.981Z,100632.74
2018-04-07T13:22:57.784Z,100639.12
2018-04-07T13:25:23.586Z,100631.55
2018-04-07T13:27:49.375Z,100628.23
2018-04-07T13:30:15.162Z,100625.50
2018-04-07T13:32:40.943Z,100622.28
2018-04-07T13:35:06.779Z,100620.89
2018-04-07T13:37:32.582Z,100615.93
2018-04-07T13:39:58.371Z,100608.16
2018-04-07T13:42:24.159Z,100618.27
2018-04-07T13:44:50.024Z,100615.22
2018-04-07T13:47:15.831Z,100603.89
2018-04-07T13:49:41.642Z,100610.78
2018-04-07T13:52:07.424Z,100601.37
2018-04-07T13:54:33.223Z,100600.45
2018-04-07T13:56:59.060Z,100601.09
2018-04-07T13:59:24.859Z,100598.22
2018-04-07T14:01:50.646Z,100591.80
2018-04-07T14:04:16.427Z,100597.84
2018-04-07T14:06:42.221Z,100590.39
2018-04-07T14:09:08.048Z,100592.41
2018-04-07T14:11:33.855Z,100590.48
2018-04-07T14:13:59.668Z,100586.14
2018-04-07T14:16:25.461Z,100586.37
2018-04-07T14:18:51.281Z,100586.52
2018-04-07T14:21:17.079Z,100583.16
2018-04-07T14:23:42.900Z,100576.61
2018-04-07T14:26:08.690Z,100572.61
2018-04-07T14:28:34.518Z,100573.80
2018-04-07T14:31:00.323Z,100579.39
2018-04-07T14:33:26.119Z,100574.98
2018-04-07T14:35:51.907Z,100575.56
2018-04-07T14:38:17.706Z,100572.30
2018-04-07T14:40:43.506Z,100567.56
2018-04-07T14:43:09.301Z,100575.14
2018-04-07T14:45:35.119Z,100572.84
2018-04-07T14:48:00.900Z,100574.77
2018-04-07T14:50:26.693Z,100566.99
2018-04-07T14:52:52.507Z,100560.83
2018-04-07T14:55:18.320Z,100567.50
2018-04-07T14:57:44.113Z,100563.07
2018-04-07T15:00:09.907Z,100561.91
2018-04-07T15:02:35.708Z,100559.48
2018-04-07T15:05:01.519Z,100562.85
2018-04-07T15:07:27.330Z,100555.36
2018-04-07T15:09:53.141Z,100557.36
2018-04-07T15:12:18.926Z,100559.94
2018-04-07T15:14:44.765Z,100557.98
2018-04-07T15:17:10.572Z,100552.13
2018-04-07T15:19:36.364Z,100559.91
2018-04-07T15:22:02.173Z,100548.99
2018-04-07T15:24:27.983Z,100549.37
2018-04-07T15:26:53.819Z,100547.38
2018-04-07T15:29:19.623Z,100546.30
2018-04-07T15:31:45.419Z,100540.50
2018-04-07T15:34:11.231Z,100544.63
2018-04-07T15:36:37.063Z,100543.77
2018-04-07T15:39:02.898Z,100547.67
2018-04-07T15:41:28.679Z,100536.36
2018-04-07T15:43:54.466Z,100535.34
2018-04-07T15:46:20.257Z,100529.48
2018-04-07T15:48:46.060Z,100534.55
2018-04-07T15:51:11.856Z,100529.33
2018-04-07T15:53:37.662Z,100525.77
2018-04-07T15:56:03.472Z,100520.81
2018-04-07T15:58:30.078Z,100527.11
2018-04-07T16:00:56.145Z,100517.45
2018-04-07T16:03:21.933Z,100517.50
2018-04-07T16:05:47.760Z,100515.52
2018-04-07T16:08:13.580Z,100512.13
2018-04-07T16:10:39.386Z,100512.27
2018-04-07T16:13:05.198Z,100511.63
2018-04-07T16:15:30.980Z,100510.84
2018-04-07T16:17:56.773Z,100506.96
2018-04-07T16:20:22.603Z,100510.16
2018-04-07T16:22:48.399Z,100503.84
2018-04-07T16:25:14.237Z,100510.83
2018-04-07T16:27:40.016Z,100511.06
2018-04-07T16:30:05.842Z,100502.84
2018-04-07T16:32:31.902Z,100497.30
2018-04-07T16:34:57.719Z,100498.00
2018-04-07T16:37:23.536Z,100497.30
2018-04-07T16:39:49.456Z,100506.01
2018-04-07T16:42:15.239Z,100506.25
2018-04-07T16:44:41.033Z,100508.81
2018-04-07T16:47:06.828Z,100504.45
2018-04-07T16:49:32.631Z,100503.87
2018-04-07T16:51:58.452Z,100506.16
2018-04-07T16:54:24.230Z,100501.70
2018-04-07T16:56:50.078Z,100503.75
2018-04-07T16:59:15.870Z,100496.17
2018-04-07T17:01:41.667Z,100496.33
2018-04-07T17:04:07.531Z,100496.82
2018-04-07T17:06:33.364Z,100497.08
2018-04-07T17:08:59.165Z,100490.67
2018-04-07T17:11:24.958Z,100488.63
2018-04-07T17:13:51.004Z,100490.86
2018-04-07T17:16:16.804Z,100492.11
2018-04-07T17:18:42.628Z,100492.32
2018-04-07T17:21:08.447Z,100486.72
2018-04-07T17:23:34.251Z,100485.35
2018-04-07T17:26:00.027Z,100483.23
2018-04-07T17:28:25.843Z,100484.29
2018-04-07T17:30:51.617Z,100485.48
2018-04-07T17:33:17.435Z,100489.55
2018-04-07T17:35:43.467Z,100487.31
2018-04-07T17:38:09.256Z,100488.27
2018-04-07T17:40:35.051Z,100483.03
2018-04-07T17:43:00.858Z,100489.34
2018-04-07T17:45:26.667Z,100482.84
2018-04-07T17:47:52.465Z,100478.38
2018-04-07T17:50:18.291Z,100486.30
2018-04-07T17:52:44.361Z,100477.18
2018-04-07T17:55:10.183Z,100484.20
2018-04-07T17:57:35.966Z,100488.20
2018-04-07T18:00:01.790Z,100482.50
2018-04-07T18:02:27.565Z,100480.98
2018-04-07T18:04:53.397Z,100474.43
2018-04-07T18:07:19.215Z,100476.12
2018-04-07T18:09:45.024Z,100466.82
2018-04-07T18:12:10.810Z,100468.94
2018-04-07T18:14:36.635Z,100471.30
2018-04-07T18:17:02.601Z,100472.80
2018-04-07T18:19:28.410Z,100473.39
2018-04-07T18:21:54.332Z,100476.59
2018-04-07T18:24:20.148Z,100481.04
2018-04-07T18:26:45.952Z,100479.09
2018-04-07T18:29:11.754Z,100481.55
2018-04-07T18:31:37.536Z,100482.34
2018-04-07T18:34:03.344Z,100481.81
2018-04-07T18:36:29.146Z,100473.61
2018-04-07T18:38:54.944Z,100486.39
2018-04-07T18:41:20.772Z,100479.56
2018-04-07T18:43:46.575Z,100480.25
2018-04-07T18:46:12.374Z,100477.06
2018-04-07T18:48:38.167Z,100478.59
2018-04-07T18:51:03.975Z,100480.97
2018-04-07T18:53:29.773Z,100486.40
2018-04-07T18:55:55.594Z,100485.97
2018-04-07T18:58:21.420Z,100482.09
2018-04-07T19:00:47.237Z,100490.77
2018-04-07T19:03:13.058Z,100492.35
2018-04-07T19:05:38.853Z,100493.51
2018-04-07T19:08:04.672Z,100500.48
2018-04-07T19:10:30.499Z,100494.56
2018-04-07T19:12:56.296Z,100496.92
2018-04-07T19:15:22.099Z,100493.16
2018-04-07T19:17:48.752Z,100500.23
2018-04-07T19:20:14.545Z,100502.34
2018-04-07T19:22:40.341Z,100505.61
2018-04-07T19:25:06.148Z,100508.28
2018-04-07T19:27:31.936Z,100510.53
2018-04-07T19:29:57.743Z,100507.77
2018-04-07T19:32:23.568Z,100516.98
2018-04-07T19:34:49.359Z,100517.30
2018-04-07T19:37:15.183Z,100520.95
2018-04-07T19:39:40.974Z,100518.63
2018-04-07T19:42:06.790Z,100518.95
2018-04-07T19:44:32.597Z,100514.60
2018-04-07T19:46:58.387Z,100512.78
2018-04-07T19:49:24.190Z,100506.22
2018-04-07T19:51:50.022Z,100512.03
2018-04-07T19:54:15.794Z,100509.28
2018-04-07T19:56:41.589Z,100507.84
2018-04-07T19:59:07.390Z,100505.01
2018-04-07T20:01:33.174Z,100500.81
2018-04-07T20:03:58.979Z,100510.86
2018-04-07T20:06:24.794Z,100508.45
2018-04-07T20:08:50.601Z,100507.13
2018-04-07T20:11:16.393Z,100508.67
2018-04-07T20:13:42.187Z,100505.94
2018-04-07T20:16:08.016Z,100506.22
2018-04-07T20:18:33.824Z,100501.45
2018-04-07T20:20:59.631Z,100491.49
2018-04-07T20:23:25.430Z,100491.90
2018-04-07T20:25:51.247Z,100493.51
2018-04-07T20:28:17.052Z,100492.14
2018-04-07T20:30:42.836Z,100488.30
2018-04-07T20:33:08.654Z,100484.44
2018-04-07T20:35:34.463Z,100482.75
2018-04-07T20:38:00.261Z,100480.27
2018-04-07T20:40:26.342Z,100479.69
2018-04-07T20:42:52.159Z,100474.53
2018-04-07T20:45:17.960Z,100469.88
2018-04-07T20:47:44.042Z,100470.71
2018-04-07T20:50:09.828Z,100455.97
2018-04-07T20:52:35.680Z,100458.20
2018-04-07T20:55:01.497Z,100455.61
2018-04-07T20:57:27.280Z,100453.66
2018-04-07T20:59:53.077Z,100456.16
2018-04-07T21:02:18.867Z,100454.01
2018-04-07T21:04:44.673Z,100455.05
2018-04-07T21:07:10.487Z,100464.27
2018-04-07T21:09:36.294Z,100463.67
2018-04-07T21:12:02.215Z,100458.11
2018-04-07T21:14:28.045Z,100453.73
2018-04-07T21:16:53.880Z,100463.83
2018-04-07T21:19:19.671Z,100456.09
2018-04-07T21:21:45.463Z,100453.88
2018-04-07T21:24:11.271Z,100454.55
2018-04-07T21:26:37.064Z,100459.02
2018-04-07T21:29:02.869Z,100455.41
2018-04-07T21:31:28.807Z,100451.71
2018-04-07T21:33:54.621Z,100448.78
2018-04-07T21:36:20.398Z,100449.97
2018-04-07T21:38:46.195Z,100448.48
2018-04-07T21:41:12.006Z,100444.03
2018-04-07T21:43:37.804Z,100445.73
2018-04-07T21:46:03.604Z,100442.94
2018-04-07T21:48:29.424Z,100448.84
2018-04-07T21:50:55.243Z,100445.27
2018-04-07T21:53:21.043Z,100446.62
2018-04-07T21:55:46.854Z,100441.44
2018-04-07T21:58:12.654Z,100441.45
2018-04-07T22:00:38.452Z,100446.42
2018-04-07T22:03:04.263Z,100446.64
2018-04-07T22:05:30.055Z,100447.32
2018-04-07T22:07:55.840Z,100443.58
2018-04-07T22:10:21.659Z,100445.09
2018-04-07T22:12:47.480Z,100436.63
2018-04-07T22:15:13.331Z,100433.10
2018-04-07T22:17:39.165Z,100429.69
2018-04-07T22:20:04.995Z,100435.98
2018-04-07T22:22:30.844Z,100435.69
2018-04-07T22:24:56.657Z,100427.47
2018-04-07T22:27:22.461Z,100418.68
2018-04-07T22:29:48.243Z,100425.61
2018-04-07T22:32:14.041Z,100431.53
2018-04-07T22:34:39.833Z,100428.55
2018-04-07T22:37:05.733Z,100421.73
2018-04-07T22:39:31.545Z,100424.25
2018-04-07T22:41:57.373Z,100418.90
2018-04-07T22:44:23.414Z,100420.39
2018-04-07T22:46:49.225Z,100413.54
2018-04-07T22:49:15.025Z,100413.66
2018-04-07T22:51:40.820Z,100415.95
2018-04-07T22:54:06.603Z,100417.73
2018-04-07T22:56:32.399Z,100413.97
2018-04-07T22:58:58.188Z,100409.34
2018-04-07T23:01:23.992Z,100405.57
2018-04-07T23:03:49.972Z,100408.31
2018-04-07T23:06:15.760Z,100414.78
2018-04-07T23:08:41.549Z,100405.50
2018-04-07T23:11:07.347Z,100407.78
2018-04-07T23:13:33.163Z,100400.63
2018-04-07T23:15:58.962Z,100403.27
2018-04-07T23:18:24.988Z,100401.59
2018-04-07T23:20:50.809Z,100398.81
2018-04-07T23:23:16.622Z,100397.30
2018-04-07T23:25:42.675Z,100398.95
2018-04-07T23:28:08.495Z,100393.28
2018-04-07T23:30:34.310Z,100389.94
2018-04-07T23:33:00.140Z,100388.04
2018-04-07T23:35:25.932Z,100388.42
2018-04-07T23:37:53.001Z,100383.66
2018-04-07T23:40:19.988Z,100390.11
2018-04-07T23:42:46.519Z,100390.55
2018-04-07T23:45:13.744Z,100392.42
2018-04-07T23:47:40.535Z,100386.18
2018-04-07T23:50:07.159Z,100386.04
2018-04-07T23:52:34.003Z,100386.61
2018-04-07T23:55:00.604Z,100387.64
2018-04-07T23:57:27.494Z,100391.62
2018-04-07T23:59:53.403Z,100387.47
